Time;durP1;ratioP1;P1;durP2;ratioP2;P2;SDS_P1;SDS_P2;PMS_P1;PMS_P2;Temp;Humidity;BMP_temperature;BMP_pressure;BME280_temperature;BME280_humidity;BME280_pressure;Samples;Min_cycle;Max_cycle;Signal;HPM_P1;HPM_P2
2021/11/22 00:00:11;;;;;;;0.30;0.30;;;5.20;99.90;;;;;;5033911;28;20519;-64
2021/11/22 00:02:37;;;;;;;0.20;0.20;;;5.20;99.90;;;;;;5034125;28;20428;-65
2021/11/22 00:05:03;;;;;;;0.30;0.20;;;5.10;99.90;;;;;;5034064;28;20288;-64
2021/11/22 00:07:29;;;;;;;0.20;0.20;;;5.10;99.90;;;;;;5033705;28;20656;-64
2021/11/22 00:09:54;;;;;;;0.20;0.20;;;5.10;99.90;;;;;;5033681;28;20208;-64
2021/11/22 00:12:20;;;;;;;0.20;0.20;;;5.10;99.90;;;;;;5033733;28;20292;-65
2021/11/22 00:14:45;;;;;;;2.87;1.17;;;5.10;99.90;;;;;;5016523;28;20205;-66
2021/11/22 00:17:11;;;;;;;0.30;0.20;;;5.10;99.90;;;;;;5032767;28;20187;-64
2021/11/22 00:19:37;;;;;;;0.20;0.17;;;5.10;99.90;;;;;;5033566;28;20181;-65
2021/11/22 00:22:03;;;;;;;0.20;0.20;;;5.00;99.90;;;;;;5016432;28;20182;-65
2021/11/22 00:24:30;;;;;;;0.40;0.40;;;4.90;99.90;;;;;;5033661;28;20614;-65
2021/11/22 00:26:56;;;;;;;10.13;1.05;;;4.90;99.90;;;;;;5033703;28;20679;-65
2021/11/22 00:29:21;;;;;;;0.40;0.30;;;4.90;99.90;;;;;;5033361;28;20189;-65
2021/11/22 00:31:49;;;;;;;0.20;0.20;;;4.80;99.90;;;;;;5033654;28;20649;-65
2021/11/22 00:34:15;;;;;;;0.55;0.55;;;4.90;99.90;;;;;;5033520;28;20649;-65
2021/11/22 00:36:41;;;;;;;1.05;0.20;;;4.80;99.90;;;;;;5033813;28;20177;-64
2021/11/22 00:39:07;;;;;;;0.30;0.30;;;4.80;99.90;;;;;;5032552;28;20166;-64
2021/11/22 00:41:32;;;;;;;0.20;0.20;;;4.80;99.90;;;;;;5033427;28;20428;-64
2021/11/22 00:43:58;;;;;;;0.20;0.20;;;4.80;99.90;;;;;;5033345;28;20185;-64
2021/11/22 00:46:26;;;;;;;1.90;0.70;;;4.80;99.90;;;;;;5033568;28;20260;-64
2021/11/22 00:48:52;;;;;;;0.20;0.20;;;4.80;99.90;;;;;;5033096;28;20273;-64
2021/11/22 00:51:18;;;;;;;0.32;0.32;;;4.80;99.90;;;;;;5033522;28;20181;-64
2021/11/22 00:53:44;;;;;;;0.20;0.20;;;4.70;99.90;;;;;;5033547;28;20205;-65
2021/11/22 00:56:10;;;;;;;0.20;0.20;;;4.70;99.90;;;;;;5033421;28;20421;-64
2021/11/22 00:58:35;;;;;;;0.20;0.20;;;4.70;99.90;;;;;;5033151;28;20708;-64
2021/11/22 01:01:01;;;;;;;5.10;0.90;;;4.70;99.90;;;;;;5033433;28;20224;-64
2021/11/22 01:03:26;;;;;;;0.20;0.20;;;4.70;99.90;;;;;;5033302;28;20260;-65
2021/11/22 01:05:52;;;;;;;0.20;0.20;;;4.70;99.90;;;;;;5033141;28;20201;-65
2021/11/22 01:08:18;;;;;;;0.30;0.30;;;4.70;99.90;;;;;;5033101;28;20517;-64
2021/11/22 01:10:43;;;;;;;0.20;0.20;;;4.60;99.90;;;;;;5015861;28;20326;-65
2021/11/22 01:13:09;;;;;;;0.20;0.20;;;4.70;99.90;;;;;;5032961;28;20216;-64
2021/11/22 01:15:35;;;;;;;0.20;0.20;;;4.70;99.90;;;;;;5033540;28;20208;-65
2021/11/22 01:18:01;;;;;;;0.20;0.20;;;4.60;99.90;;;;;;5032886;28;20260;-65
2021/11/22 01:20:31;;;;;;;0.70;0.70;;;4.60;99.90;;;;;;5033251;28;20232;-65
2021/11/22 01:23:08;;;;;;;0.20;0.20;;;4.50;99.90;;;;;;5033149;28;20523;-64
2021/11/22 01:25:34;;;;;;;0.20;0.10;;;4.50;99.90;;;;;;5033136;28;20181;-64
2021/11/22 01:28:01;;;;;;;0.70;0.40;;;4.60;99.90;;;;;;5033012;28;20485;-64
2021/11/22 01:30:27;;;;;;;0.20;0.10;;;4.50;99.90;;;;;;5033625;28;20182;-64
2021/11/22 01:32:53;;;;;;;0.40;0.40;;;4.50;99.90;;;;;;5032959;28;20570;-64
2021/11/22 01:35:19;;;;;;;0.20;0.20;;;4.50;99.90;;;;;;5033189;28;20196;-64
2021/11/22 01:37:46;;;;;;;0.20;0.20;;;4.50;99.90;;;;;;5033001;28;20178;-64
2021/11/22 01:40:15;;;;;;;0.20;0.20;;;4.40;99.90;;;;;;5032845;28;20185;-64
2021/11/22 01:42:41;;;;;;;0.30;0.30;;;4.40;99.90;;;;;;5033027;28;20567;-64
2021/11/22 01:45:10;;;;;;;0.20;0.20;;;4.40;99.90;;;;;;5032863;28;20182;-64
2021/11/22 01:47:36;;;;;;;0.30;0.30;;;4.30;99.90;;;;;;5033020;28;20180;-64
2021/11/22 01:50:07;;;;;;;0.20;0.20;;;4.20;99.90;;;;;;5032797;28;20280;-64
2021/11/22 01:52:33;;;;;;;0.20;0.20;;;4.30;99.90;;;;;;5036343;28;20994;-65
2021/11/22 01:54:59;;;;;;;0.30;0.20;;;4.20;99.90;;;;;;5036218;28;20178;-65
2021/11/22 01:57:24;;;;;;;0.20;0.20;;;4.30;99.90;;;;;;5036385;28;20179;-64
2021/11/22 01:59:50;;;;;;;0.20;0.20;;;4.20;99.90;;;;;;5036246;28;20208;-64
2021/11/22 02:02:15;;;;;;;0.20;0.20;;;4.30;99.90;;;;;;5036347;28;20182;-64
2021/11/22 02:04:41;;;;;;;0.20;0.20;;;4.10;99.90;;;;;;5036092;28;20201;-64
2021/11/22 02:07:07;;;;;;;0.20;0.20;;;4.10;99.90;;;;;;5036309;28;20269;-64
2021/11/22 02:09:32;;;;;;;0.20;0.20;;;4.10;99.90;;;;;;5035920;28;20185;-64
2021/11/22 02:11:59;;;;;;;0.20;0.20;;;4.10;99.90;;;;;;5036136;28;20216;-64
2021/11/22 02:14:24;;;;;;;0.20;0.20;;;4.10;99.90;;;;;;5036113;28;20679;-64
2021/11/22 02:16:50;;;;;;;0.30;0.30;;;4.00;99.90;;;;;;5036064;28;20181;-64
2021/11/22 02:19:16;;;;;;;0.20;0.20;;;4.00;99.90;;;;;;5035810;28;20880;-64
2021/11/22 02:21:43;;;;;;;0.20;0.20;;;4.00;99.90;;;;;;5036046;28;20182;-64
2021/11/22 02:24:10;;;;;;;0.20;0.20;;;4.00;99.90;;;;;;5035730;28;20174;-64
2021/11/22 02:26:36;;;;;;;0.30;0.30;;;4.00;99.90;;;;;;5035972;28;20197;-64
2021/11/22 02:29:04;;;;;;;0.20;0.20;;;3.90;99.90;;;;;;5035734;28;20193;-64
2021/11/22 02:31:30;;;;;;;0.20;0.20;;;4.00;99.90;;;;;;5035978;28;20188;-65
2021/11/22 02:33:56;;;;;;;1.08;0.47;;;4.00;99.90;;;;;;5035558;28;20235;-65
2021/11/22 02:36:22;;;;;;;0.20;0.20;;;4.00;99.90;;;;;;5018324;28;20184;-64
2021/11/22 02:38:49;;;;;;;0.20;0.20;;;3.90;99.90;;;;;;5035563;28;20268;-65
2021/11/22 02:41:17;;;;;;;0.20;0.20;;;3.90;99.90;;;;;;5035635;28;20178;-65
2021/11/22 02:43:45;;;;;;;0.20;0.20;;;4.00;99.90;;;;;;5035454;28;20633;-65
2021/11/22 02:46:11;;;;;;;0.20;0.20;;;4.10;99.90;;;;;;5035501;28;20204;-65
2021/11/22 02:48:38;;;;;;;0.20;0.20;;;4.10;99.90;;;;;;5035150;28;20177;-65
2021/11/22 02:51:05;;;;;;;3.67;0.68;;;4.10;99.90;;;;;;5035553;28;20193;-65
2021/11/22 02:53:32;;;;;;;0.20;0.20;;;4.00;99.90;;;;;;5035410;28;20208;-64
2021/11/22 02:56:00;;;;;;;0.20;0.20;;;3.90;99.90;;;;;;5035534;28;20173;-65
2021/11/22 02:58:25;;;;;;;0.20;0.20;;;3.90;99.90;;;;;;5035185;28;20649;-63
2021/11/22 03:00:52;;;;;;;1.17;0.87;;;3.90;99.90;;;;;;5019890;28;20178;-62
2021/11/22 03:03:18;;;;;;;0.20;0.20;;;3.90;99.90;;;;;;5037720;28;20174;-62
2021/11/22 03:05:43;;;;;;;0.20;0.20;;;3.80;99.90;;;;;;5034928;28;20194;-62
2021/11/22 03:08:09;;;;;;;0.20;0.20;;;3.70;99.90;;;;;;5017515;28;20211;-65
2021/11/22 03:10:35;;;;;;;0.20;0.20;;;3.70;99.90;;;;;;5035107;28;20256;-64
2021/11/22 03:13:01;;;;;;;0.20;0.20;;;3.60;99.90;;;;;;5035056;28;20562;-63
2021/11/22 03:15:27;;;;;;;0.77;0.70;;;3.50;99.90;;;;;;5034817;28;20174;-64
2021/11/22 03:17:53;;;;;;;0.40;0.40;;;3.50;99.90;;;;;;5034811;28;20758;-64
2021/11/22 03:20:21;;;;;;;0.20;0.20;;;3.50;99.90;;;;;;5034739;28;20178;-63
2021/11/22 03:22:48;;;;;;;0.20;0.20;;;3.40;99.90;;;;;;5034880;28;20225;-64
2021/11/22 03:25:16;;;;;;;0.20;0.20;;;3.40;99.90;;;;;;5034570;28;20185;-64
2021/11/22 03:27:42;;;;;;;0.20;0.20;;;3.40;99.90;;;;;;5034740;28;20193;-64
2021/11/22 03:30:10;;;;;;;0.33;0.33;;;3.40;99.90;;;;;;5034669;28;20173;-62
2021/11/22 03:32:36;;;;;;;0.20;0.20;;;3.40;99.90;;;;;;5034587;28;20466;-63
2021/11/22 03:35:02;;;;;;;2.40;2.30;;;3.50;99.90;;;;;;5034390;28;20173;-63
2021/11/22 03:37:28;;;;;;;0.20;0.20;;;3.50;99.90;;;;;;5034912;28;20570;-62
2021/11/22 03:39:54;;;;;;;0.20;0.20;;;3.50;99.90;;;;;;5034359;28;20264;-64
2021/11/22 03:42:22;;;;;;;1.77;1.70;;;3.40;99.90;;;;;;5034505;28;20446;-63
2021/11/22 03:44:48;;;;;;;0.20;0.20;;;3.40;99.90;;;;;;5034488;28;20193;-62
2021/11/22 03:47:14;;;;;;;0.50;0.50;;;3.30;99.90;;;;;;5034466;28;20178;-63
2021/11/22 03:49:40;;;;;;;0.30;0.30;;;3.20;99.90;;;;;;5034657;28;20178;-64
2021/11/22 03:52:07;;;;;;;0.27;0.27;;;3.30;99.90;;;;;;5035195;28;20177;-64
2021/11/22 03:54:33;;;;;;;0.20;0.20;;;3.20;99.90;;;;;;5035363;28;20881;-64
2021/11/22 03:56:58;;;;;;;0.20;0.20;;;3.20;99.90;;;;;;5037101;28;20205;-64
2021/11/22 03:59:24;;;;;;;0.20;0.20;;;3.20;99.90;;;;;;5036314;28;20185;-64
2021/11/22 04:01:50;;;;;;;0.20;0.20;;;3.20;99.90;;;;;;5038228;28;20181;-65
2021/11/22 04:04:15;;;;;;;0.20;0.20;;;3.30;99.90;;;;;;5039101;28;20185;-64
2021/11/22 04:06:41;;;;;;;0.20;0.20;;;3.40;99.90;;;;;;5039525;28;20628;-64
2021/11/22 04:09:07;;;;;;;0.20;0.20;;;3.40;99.90;;;;;;5039376;28;20181;-64
2021/11/22 04:11:34;;;;;;;0.20;0.20;;;3.30;99.90;;;;;;5039792;28;20614;-64
2021/11/22 04:14:00;;;;;;;0.20;0.20;;;3.30;99.90;;;;;;5039730;28;20292;-64
2021/11/22 04:16:25;;;;;;;0.20;0.20;;;3.20;99.90;;;;;;5041811;28;20182;-64
2021/11/22 04:18:51;;;;;;;0.20;0.20;;;3.20;99.90;;;;;;5040949;28;20443;-63
2021/11/22 04:21:19;;;;;;;0.20;0.20;;;3.10;99.90;;;;;;5041024;28;20197;-63
2021/11/22 04:23:45;;;;;;;0.20;0.20;;;3.10;99.90;;;;;;5040925;28;20209;-63
2021/11/22 04:26:12;;;;;;;0.40;0.40;;;3.10;99.90;;;;;;5040200;28;20185;-63
2021/11/22 04:28:38;;;;;;;0.22;0.22;;;3.20;99.90;;;;;;5037932;28;20189;-64
2021/11/22 04:31:04;;;;;;;0.20;0.20;;;3.20;99.90;;;;;;5035434;28;20185;-64
2021/11/22 04:33:30;;;;;;;2.00;0.40;;;3.20;99.90;;;;;;5033566;28;20219;-64
2021/11/22 04:35:56;;;;;;;0.20;0.20;;;3.20;99.90;;;;;;5034284;28;20610;-64
2021/11/22 04:38:21;;;;;;;0.40;0.30;;;3.30;99.90;;;;;;5033485;28;20177;-62
2021/11/22 04:40:47;;;;;;;0.20;0.20;;;3.30;99.90;;;;;;5033608;28;20259;-62
2021/11/22 04:43:12;;;;;;;0.20;0.20;;;3.20;99.90;;;;;;5033760;28;20199;-63
2021/11/22 04:45:38;;;;;;;0.20;0.20;;;3.10;99.90;;;;;;5036776;28;20218;-62
2021/11/22 04:48:05;;;;;;;0.20;0.20;;;3.10;99.90;;;;;;5033280;28;20178;-62
2021/11/22 04:50:32;;;;;;;1.10;1.05;;;3.00;99.90;;;;;;5015948;28;20284;-62
2021/11/22 04:52:59;;;;;;;0.50;0.30;;;2.90;99.90;;;;;;5033426;28;20209;-62
2021/11/22 04:55:25;;;;;;;0.20;0.20;;;2.80;99.90;;;;;;5033424;28;20424;-62
2021/11/22 04:57:51;;;;;;;0.20;0.20;;;2.80;99.90;;;;;;5033265;28;20460;-62
2021/11/22 05:00:19;;;;;;;1.33;1.23;;;2.70;99.90;;;;;;5032543;28;20924;-62
2021/11/22 05:02:48;;;;;;;1.80;0.73;;;2.70;99.90;;;;;;5032983;28;20617;-62
2021/11/22 05:05:16;;;;;;;0.20;0.20;;;2.70;99.90;;;;;;5033187;28;20188;-62
2021/11/22 05:07:43;;;;;;;0.22;0.20;;;2.70;99.90;;;;;;5033598;28;20172;-62
2021/11/22 05:10:10;;;;;;;0.30;0.20;;;2.80;99.90;;;;;;5033222;28;20510;-62
2021/11/22 05:12:35;;;;;;;0.20;0.20;;;2.80;99.90;;;;;;5033284;28;20207;-62
2021/11/22 05:15:01;;;;;;;0.47;0.47;;;2.90;99.90;;;;;;5033166;28;20268;-61
2021/11/22 05:17:27;;;;;;;0.50;0.50;;;2.90;99.90;;;;;;5033452;28;20178;-62
2021/11/22 05:19:52;;;;;;;0.20;0.20;;;2.80;99.90;;;;;;5033096;28;20514;-62
2021/11/22 05:22:21;;;;;;;0.20;0.20;;;2.80;99.90;;;;;;5033311;28;20196;-62
2021/11/22 05:24:51;;;;;;;0.20;0.20;;;2.90;99.90;;;;;;5033241;28;20209;-62
2021/11/22 05:27:23;;;;;;;1.25;1.15;;;2.80;99.90;;;;;;5018876;28;20180;-62
2021/11/22 05:29:50;;;;;;;0.20;0.20;;;2.70;99.90;;;;;;5036650;28;20177;-62
2021/11/22 05:32:17;;;;;;;0.20;0.20;;;2.70;99.90;;;;;;5036909;28;20176;-62
2021/11/22 05:34:52;;;;;;;0.20;0.20;;;2.70;99.90;;;;;;5036984;28;20212;-62
2021/11/22 05:37:17;;;;;;;0.50;0.50;;;2.70;99.90;;;;;;5036790;28;20271;-62
2021/11/22 05:39:44;;;;;;;1.33;1.30;;;2.70;99.90;;;;;;5036598;28;20555;-62
2021/11/22 05:42:10;;;;;;;0.57;0.57;;;2.70;99.90;;;;;;5036585;28;20180;-63
2021/11/22 05:44:35;;;;;;;0.40;0.40;;;2.70;99.90;;;;;;5036759;28;20192;-62
2021/11/22 05:47:04;;;;;;;0.53;0.53;;;2.80;99.90;;;;;;5036316;28;20189;-62
2021/11/22 05:49:32;;;;;;;1.02;0.60;;;2.70;99.90;;;;;;5036466;28;20196;-62
2021/11/22 05:51:58;;;;;;;0.20;0.20;;;2.70;99.90;;;;;;5036633;28;20609;-62
2021/11/22 05:54:25;;;;;;;0.30;0.30;;;2.70;99.90;;;;;;5036538;28;20216;-62
2021/11/22 05:56:51;;;;;;;0.20;0.20;;;2.70;99.90;;;;;;5036409;28;20177;-63
2021/11/22 05:59:17;;;;;;;0.63;0.63;;;2.70;99.90;;;;;;5036078;28;20252;-63
2021/11/22 06:01:43;;;;;;;0.20;0.20;;;2.70;99.90;;;;;;5036144;28;20256;-62
2021/11/22 06:04:09;;;;;;;0.20;0.20;;;2.70;99.90;;;;;;5036295;28;20574;-62
2021/11/22 06:06:34;;;;;;;0.50;0.50;;;2.70;99.90;;;;;;5035950;28;20193;-63
2021/11/22 06:09:00;;;;;;;0.20;0.20;;;2.80;99.90;;;;;;5036348;28;20193;-63
2021/11/22 06:11:26;;;;;;;0.20;0.20;;;2.70;99.90;;;;;;5018988;28;20231;-63
2021/11/22 06:13:52;;;;;;;0.20;0.20;;;2.70;99.90;;;;;;5036090;28;20534;-62
2021/11/22 06:16:17;;;;;;;0.20;0.20;;;2.80;99.90;;;;;;5036078;28;20438;-61
2021/11/22 06:18:43;;;;;;;0.50;0.50;;;2.80;99.90;;;;;;5035670;28;20261;-62
2021/11/22 06:21:08;;;;;;;0.20;0.20;;;2.70;99.90;;;;;;5035671;28;20264;-61
2021/11/22 06:23:34;;;;;;;0.20;0.20;;;2.80;99.90;;;;;;5035801;28;20269;-61
2021/11/22 06:26:00;;;;;;;0.20;0.20;;;2.80;99.90;;;;;;5018059;28;20177;-61
2021/11/22 06:28:25;;;;;;;0.20;0.20;;;2.80;99.90;;;;;;5035710;28;20568;-61
2021/11/22 06:30:51;;;;;;;0.20;0.20;;;2.80;99.90;;;;;;5035710;28;20180;-61
2021/11/22 06:33:17;;;;;;;1.23;0.50;;;2.80;99.90;;;;;;5035657;28;20209;-61
2021/11/22 06:35:43;;;;;;;0.20;0.20;;;2.80;99.90;;;;;;5035726;28;20633;-61
2021/11/22 06:38:09;;;;;;;0.20;0.20;;;2.80;99.90;;;;;;5035478;28;20518;-61
2021/11/22 06:40:35;;;;;;;0.60;0.60;;;2.70;99.90;;;;;;5035575;28;20438;-61
2021/11/22 06:43:01;;;;;;;0.20;0.20;;;2.70;99.90;;;;;;5035292;28;20177;-61
2021/11/22 06:45:27;;;;;;;0.30;0.30;;;2.70;99.90;;;;;;5036601;28;20208;-61
2021/11/22 06:47:53;;;;;;;0.20;0.20;;;2.80;99.90;;;;;;5035248;28;20220;-61
2021/11/22 06:50:19;;;;;;;0.53;0.30;;;2.80;99.90;;;;;;5035051;28;20454;-62
2021/11/22 06:52:44;;;;;;;1.40;1.33;;;2.70;99.90;;;;;;5034962;28;20787;-61
2021/11/22 06:55:11;;;;;;;0.30;0.30;;;2.70;99.90;;;;;;5034876;28;20180;-62
2021/11/22 06:57:37;;;;;;;0.20;0.20;;;2.70;99.90;;;;;;5034746;28;20185;-63
2021/11/22 07:00:07;;;;;;;0.20;0.20;;;2.80;99.90;;;;;;5034626;28;20184;-61
2021/11/22 07:02:33;;;;;;;2.53;1.75;;;2.70;99.90;;;;;;5034552;28;20223;-61
2021/11/22 07:04:58;;;;;;;0.40;0.33;;;2.70;99.90;;;;;;5035069;28;20190;-62
2021/11/22 07:07:27;;;;;;;0.30;0.20;;;2.80;99.90;;;;;;5034793;28;20173;-62
2021/11/22 07:09:53;;;;;;;0.90;0.90;;;2.80;99.90;;;;;;5034704;28;20258;-62
2021/11/22 07:12:18;;;;;;;0.20;0.20;;;2.90;99.90;;;;;;5034739;28;20260;-62
2021/11/22 07:14:44;;;;;;;0.20;0.20;;;2.90;99.90;;;;;;5034730;28;20532;-62
2021/11/22 07:17:12;;;;;;;0.20;0.20;;;2.90;99.90;;;;;;5033931;28;20182;-62
2021/11/22 07:19:37;;;;;;;0.20;0.20;;;2.90;99.90;;;;;;5034372;28;20185;-61
2021/11/22 07:22:07;;;;;;;4.13;1.13;;;3.00;99.90;;;;;;5034709;28;20620;-62
2021/11/22 07:24:33;;;;;;;0.43;0.43;;;2.90;99.90;;;;;;5034479;28;20425;-62
2021/11/22 07:26:59;;;;;;;0.20;0.20;;;2.90;99.90;;;;;;5034330;28;20177;-62
2021/11/22 07:29:26;;;;;;;0.88;0.88;;;2.90;99.90;;;;;;5034205;28;20260;-62
2021/11/22 07:31:51;;;;;;;0.20;0.20;;;2.90;99.90;;;;;;5034420;28;20239;-62
2021/11/22 07:34:17;;;;;;;0.20;0.20;;;2.90;99.90;;;;;;5034392;28;20221;-62
2021/11/22 07:36:42;;;;;;;0.20;0.20;;;3.00;99.90;;;;;;5034412;28;20189;-62
2021/11/22 07:39:08;;;;;;;0.20;0.20;;;2.90;99.90;;;;;;5034192;28;20184;-62
2021/11/22 07:41:33;;;;;;;0.20;0.20;;;3.00;99.90;;;;;;5034302;28;20207;-61
2021/11/22 07:43:59;;;;;;;0.20;0.20;;;3.00;99.90;;;;;;5034389;28;20614;-61
2021/11/22 07:46:26;;;;;;;0.20;0.20;;;3.10;99.90;;;;;;5034159;28;20569;-61
2021/11/22 07:48:53;;;;;;;0.20;0.20;;;3.00;99.90;;;;;;5033359;28;20247;-60
2021/11/22 07:51:19;;;;;;;0.20;0.20;;;3.20;99.90;;;;;;5016236;28;20197;-60
2021/11/22 07:53:45;;;;;;;0.70;0.70;;;3.20;99.90;;;;;;5017482;28;20208;-60
2021/11/22 07:56:10;;;;;;;0.50;0.50;;;3.20;99.90;;;;;;5014902;28;20181;-60
2021/11/22 07:58:36;;;;;;;0.80;0.80;;;3.20;99.90;;;;;;5017364;28;20436;-60
2021/11/22 08:01:02;;;;;;;0.47;0.47;;;3.30;99.90;;;;;;5014364;28;20303;-60
2021/11/22 08:03:28;;;;;;;0.20;0.20;;;3.30;99.90;;;;;;5013822;28;20194;-60
2021/11/22 08:05:57;;;;;;;0.97;0.93;;;3.30;99.90;;;;;;5013556;28;20202;-61
2021/11/22 08:08:24;;;;;;;0.20;0.20;;;3.30;99.90;;;;;;5029179;28;20285;-60
2021/11/22 08:13:35;;;;;;;0.20;0.20;;;3.40;99.90;;;;;;5033780;28;20216;-62
2021/11/22 08:16:04;;;;;;;0.28;0.25;;;3.50;99.90;;;;;;5033781;28;20208;-61
2021/11/22 08:18:31;;;;;;;0.30;0.30;;;3.60;99.90;;;;;;5033329;28;20193;-61
2021/11/22 08:20:56;;;;;;;0.20;0.20;;;3.60;99.90;;;;;;5033572;28;20169;-61
2021/11/22 08:23:22;;;;;;;0.20;0.20;;;3.70;99.90;;;;;;5030998;28;20548;-61
2021/11/22 08:25:49;;;;;;;0.20;0.20;;;3.70;99.90;;;;;;5032085;28;20903;-61
2021/11/22 08:28:16;;;;;;;0.20;0.20;;;3.60;99.90;;;;;;5015345;28;20189;-60
2021/11/22 08:30:41;;;;;;;0.35;0.30;;;3.70;99.90;;;;;;5033272;28;20185;-61
2021/11/22 08:33:07;;;;;;;0.20;0.20;;;3.70;99.90;;;;;;5033095;28;20689;-61
2021/11/22 08:35:33;;;;;;;0.20;0.20;;;3.80;99.90;;;;;;5033284;28;20185;-61
2021/11/22 08:38:02;;;;;;;0.20;0.20;;;3.60;99.90;;;;;;5033105;28;20598;-60
2021/11/22 08:40:29;;;;;;;0.43;0.43;;;3.70;99.90;;;;;;5033443;28;20555;-61
2021/11/22 08:42:55;;;;;;;0.20;0.20;;;3.70;99.90;;;;;;5033429;28;20207;-60
2021/11/22 08:45:22;;;;;;;0.20;0.20;;;3.80;99.90;;;;;;5033335;28;20666;-60
2021/11/22 08:47:47;;;;;;;0.70;0.70;;;3.80;99.90;;;;;;5033190;28;20514;-60
2021/11/22 08:50:14;;;;;;;0.63;0.63;;;3.80;99.90;;;;;;5033006;28;20272;-60
2021/11/22 08:52:41;;;;;;;4.20;3.90;;;4.00;99.90;;;;;;5033172;28;20463;-61
2021/11/22 08:55:08;;;;;;;0.20;0.20;;;4.10;99.90;;;;;;5032915;28;20183;-60
2021/11/22 08:57:34;;;;;;;0.68;0.68;;;4.10;99.90;;;;;;5030339;28;20192;-60
2021/11/22 09:00:02;;;;;;;0.60;0.40;;;4.10;99.90;;;;;;5032305;28;20204;-60
2021/11/22 09:02:27;;;;;;;1.20;0.77;;;4.10;99.90;;;;;;5036825;28;20264;-60
2021/11/22 09:04:53;;;;;;;1.70;1.60;;;4.00;99.90;;;;;;5036496;28;20641;-60
2021/11/22 09:07:18;;;;;;;0.40;0.40;;;4.00;99.90;;;;;;5036494;28;20169;-60
2021/11/22 09:09:44;;;;;;;0.90;0.63;;;4.00;99.90;;;;;;5035441;28;20485;-60
2021/11/22 09:12:11;;;;;;;1.60;0.55;;;4.00;99.90;;;;;;5025517;28;20174;-60
2021/11/22 09:14:36;;;;;;;0.50;0.50;;;4.10;99.90;;;;;;5015630;28;20639;-60
2021/11/22 09:17:02;;;;;;;0.50;0.50;;;4.10;99.90;;;;;;5015732;28;20247;-60
2021/11/22 09:19:28;;;;;;;1.00;0.90;;;4.10;99.90;;;;;;5015246;28;20525;-60
2021/11/22 09:21:53;;;;;;;0.57;0.57;;;4.10;99.90;;;;;;5015383;28;20429;-60
2021/11/22 09:24:19;;;;;;;0.93;0.93;;;4.10;99.90;;;;;;5015566;28;20186;-60
2021/11/22 09:26:44;;;;;;;0.30;0.30;;;4.00;99.90;;;;;;5015805;28;20241;-60
2021/11/22 09:29:10;;;;;;;1.37;1.27;;;4.00;99.90;;;;;;5015218;28;20506;-60
2021/11/22 09:31:36;;;;;;;0.37;0.37;;;4.00;99.90;;;;;;5015312;28;20559;-59
2021/11/22 09:34:02;;;;;;;2.30;2.15;;;4.10;99.90;;;;;;5015768;28;20206;-60
2021/11/22 09:36:28;;;;;;;0.20;0.20;;;4.00;99.90;;;;;;5015887;28;20277;-60
2021/11/22 09:38:54;;;;;;;0.30;0.30;;;4.10;99.90;;;;;;5015289;28;20178;-61
2021/11/22 09:41:22;;;;;;;0.20;0.10;;;4.40;99.90;;;;;;5015494;28;20180;-60
2021/11/22 09:43:48;;;;;;;0.50;0.47;;;4.50;99.90;;;;;;5015629;28;20583;-60
2021/11/22 09:46:14;;;;;;;1.90;1.73;;;4.50;99.90;;;;;;5015272;28;20216;-62
2021/11/22 09:48:41;;;;;;;1.02;0.93;;;4.50;99.90;;;;;;5015187;28;20303;-60
2021/11/22 09:51:10;;;;;;;0.63;0.63;;;4.50;99.90;;;;;;4998182;28;20185;-60
2021/11/22 09:53:36;;;;;;;3.85;1.48;;;4.50;99.90;;;;;;5014855;28;20676;-60
2021/11/22 09:56:01;;;;;;;0.20;0.20;;;4.40;99.90;;;;;;5014990;28;20617;-60
2021/11/22 09:58:27;;;;;;;0.20;0.20;;;4.60;99.90;;;;;;5018786;28;20440;-60
2021/11/22 10:00:56;;;;;;;0.20;0.10;;;4.70;99.90;;;;;;5014919;28;20261;-60
2021/11/22 10:03:24;;;;;;;0.95;0.93;;;4.80;99.90;;;;;;5015246;28;20193;-60
2021/11/22 10:05:57;;;;;;;0.60;0.60;;;4.70;99.90;;;;;;4963447;28;1507312;-61
2021/11/22 10:08:24;;;;;;;0.22;0.22;;;4.80;99.90;;;;;;5016244;28;20281;-61
2021/11/22 10:10:56;;;;;;;0.20;0.20;;;4.80;99.90;;;;;;5016309;28;20179;-60
2021/11/22 10:13:27;;;;;;;2.25;1.23;;;5.00;99.90;;;;;;5015794;28;20297;-60
2021/11/22 10:15:56;;;;;;;0.30;0.30;;;4.90;99.90;;;;;;5016247;28;20651;-60
2021/11/22 10:18:31;;;;;;;0.30;0.30;;;5.00;99.90;;;;;;5016062;28;20265;-60
2021/11/22 10:21:05;;;;;;;0.30;0.30;;;5.00;99.90;;;;;;4999499;28;20657;-60
2021/11/22 10:23:36;;;;;;;0.93;0.80;;;5.10;99.90;;;;;;4998915;28;20500;-60
2021/11/22 10:26:02;;;;;;;0.70;0.70;;;5.00;99.90;;;;;;5016132;28;20220;-61
2021/11/22 10:28:38;;;;;;;0.30;0.30;;;5.00;99.90;;;;;;5015829;28;20247;-60
2021/11/22 10:31:06;;;;;;;0.20;0.20;;;5.10;99.90;;;;;;5016042;28;20630;-60
2021/11/22 10:33:37;;;;;;;1.27;1.27;;;5.00;99.90;;;;;;5015963;28;20212;-60
2021/11/22 10:36:09;;;;;;;1.42;0.93;;;5.10;99.90;;;;;;5016025;28;20179;-60
2021/11/22 10:38:38;;;;;;;0.40;0.40;;;5.20;99.90;;;;;;5015645;28;20170;-60
2021/11/22 10:41:18;;;;;;;0.20;0.20;;;5.20;99.90;;;;;;5016104;28;20185;-60
2021/11/22 10:43:51;;;;;;;0.20;0.20;;;5.30;99.90;;;;;;5016145;28;20178;-60
2021/11/22 10:46:24;;;;;;;0.20;0.20;;;5.40;99.90;;;;;;5015607;28;20186;-61
2021/11/22 10:48:52;;;;;;;0.68;0.68;;;5.40;99.90;;;;;;5015070;28;20182;-60
2021/11/22 10:51:25;;;;;;;0.38;0.38;;;5.60;99.90;;;;;;5016065;28;20174;-62
2021/11/22 10:53:52;;;;;;;0.93;0.93;;;5.70;99.90;;;;;;5015422;28;20214;-61
2021/11/22 10:56:26;;;;;;;0.50;0.50;;;5.60;91.00;;;;;;5015606;28;20504;-61
2021/11/22 10:59:05;;;;;;;0.55;0.55;;;5.70;94.40;;;;;;5018411;28;20197;-61
2021/11/22 11:01:36;;;;;;;0.20;0.20;;;5.70;81.90;;;;;;5015586;28;20189;-61
2021/11/22 11:04:05;;;;;;;1.30;1.20;;;5.80;54.90;;;;;;5015164;28;20178;-62
2021/11/22 11:06:35;;;;;;;0.20;0.20;;;5.80;10.10;;;;;;5015143;28;20209;-60
2021/11/22 11:09:01;;;;;;;1.15;0.45;;;5.90;1.00;;;;;;4996934;28;20189;-60
2021/11/22 11:11:27;;;;;;;0.60;0.60;;;5.80;1.00;;;;;;5015092;28;20186;-60
2021/11/22 11:13:53;;;;;;;0.30;0.30;;;5.80;1.00;;;;;;5014972;28;20245;-60
2021/11/22 11:16:20;;;;;;;1.05;0.95;;;5.70;1.00;;;;;;5015063;28;20176;-60
2021/11/22 11:19:06;;;;;;;0.20;0.20;;;5.70;1.00;;;;;;5014565;28;20621;-60
2021/11/22 11:21:38;;;;;;;0.20;0.20;;;5.80;1.00;;;;;;5014334;28;20212;-60
2021/11/22 11:24:05;;;;;;;0.77;0.75;;;5.90;1.00;;;;;;5014141;28;20182;-60
2021/11/22 11:26:33;;;;;;;0.50;0.50;;;5.80;1.00;;;;;;5015344;28;20237;-60
2021/11/22 11:28:58;;;;;;;0.20;0.20;;;5.90;1.00;;;;;;5013892;28;20269;-61
2021/11/22 11:31:25;;;;;;;0.20;0.20;;;6.30;1.00;;;;;;5014718;28;20218;-61
2021/11/22 11:33:51;;;;;;;0.60;0.60;;;6.60;1.00;;;;;;5014464;28;20616;-61
2021/11/22 11:36:47;;;;;;;0.40;0.40;;;6.40;1.00;;;;;;5014392;28;20574;-61
2021/11/22 11:39:36;;;;;;;1.25;1.15;;;6.30;1.00;;;;;;5014219;28;20502;-61
2021/11/22 11:42:54;;;;;;;1.23;1.23;;;6.60;1.00;;;;;;5014461;28;20178;-61
2021/11/22 11:45:28;;;;;;;0.55;0.55;;;6.70;1.00;;;;;;4999731;28;20208;-61
2021/11/22 11:48:15;;;;;;;0.45;0.45;;;6.40;99.90;;;;;;5014308;28;20225;-60
2021/11/22 11:50:44;;;;;;;0.20;0.20;;;6.40;99.90;;;;;;5014393;28;20261;-61
2021/11/22 11:53:15;;;;;;;0.20;0.20;;;6.40;99.90;;;;;;5014241;28;20541;-62
2021/11/22 11:55:44;;;;;;;0.30;0.30;;;6.40;1.00;;;;;;5014398;28;20169;-61
2021/11/22 11:58:28;;;;;;;0.20;0.20;;;6.30;1.00;;;;;;4996712;28;20269;-60
2021/11/22 12:01:04;;;;;;;0.30;0.20;;;6.40;99.90;;;;;;5013925;28;20509;-63
2021/11/22 12:03:50;;;;;;;0.73;0.73;;;6.40;1.00;;;;;;4996685;28;20505;-64
2021/11/22 12:06:45;;;;;;;1.42;1.33;;;6.50;99.90;;;;;;5014179;28;20656;-62
2021/11/22 12:09:43;;;;;;;0.40;0.40;;;6.40;99.90;;;;;;4996326;28;20186;-63
2021/11/22 12:12:12;;;;;;;0.30;0.20;;;6.40;99.90;;;;;;5013904;28;20221;-61
2021/11/22 12:14:59;;;;;;;1.20;1.17;;;6.60;99.90;;;;;;5014307;28;20256;-61
2021/11/22 12:17:33;;;;;;;0.45;0.40;;;6.70;99.90;;;;;;5014254;28;20170;-61
2021/11/22 12:20:07;;;;;;;0.20;0.20;;;6.80;46.10;;;;;;5013803;28;20182;-61
2021/11/22 12:22:38;;;;;;;1.83;0.35;;;6.90;19.10;;;;;;5014257;28;20196;-61
2021/11/22 12:25:06;;;;;;;0.30;0.30;;;6.80;1.00;;;;;;5014438;28;20170;-61
2021/11/22 12:27:32;;;;;;;0.20;0.20;;;6.90;1.00;;;;;;5014290;28;20173;-61
2021/11/22 12:30:03;;;;;;;0.20;0.20;;;6.80;99.90;;;;;;5014020;28;20252;-61
2021/11/22 12:32:31;;;;;;;0.20;0.20;;;6.80;99.90;;;;;;5014353;28;20593;-61
2021/11/22 12:34:59;;;;;;;0.20;0.20;;;7.10;99.90;;;;;;5013685;28;20509;-62
2021/11/22 12:37:27;;;;;;;0.45;0.45;;;7.00;1.00;;;;;;5013384;28;20406;-63
2021/11/22 12:39:54;;;;;;;0.20;0.20;;;7.10;1.00;;;;;;5013494;28;20182;-65
2021/11/22 12:42:23;;;;;;;0.43;0.43;;;7.20;1.00;;;;;;5013647;28;20189;-65
2021/11/22 12:45:04;;;;;;;0.20;0.20;;;7.30;1.00;;;;;;4996371;28;20190;-66
2021/11/22 12:47:30;;;;;;;0.30;0.20;;;7.20;1.00;;;;;;4996445;28;20193;-66
2021/11/22 12:50:17;;;;;;;0.33;0.33;;;7.20;1.00;;;;;;5013437;28;20186;-66
2021/11/22 12:53:03;;;;;;;0.20;0.10;;;7.30;99.90;;;;;;5013676;28;20202;-65
2021/11/22 12:55:42;;;;;;;0.77;0.75;;;7.20;99.90;;;;;;5013472;28;20226;-65
2021/11/22 12:58:23;;;;;;;0.40;0.40;;;7.20;1.00;;;;;;5013461;28;20170;-65
2021/11/22 13:00:50;;;;;;;0.20;0.17;;;7.20;1.00;;;;;;5010728;28;20181;-65
2021/11/22 13:03:19;;;;;;;0.20;0.20;;;7.20;1.00;;;;;;5017685;28;20309;-65